createdAt,value
2022-11-02T00:01:48.752Z,52.30
2022-11-02T00:06:51.920Z,52.30
2022-11-02T00:11:56.536Z,52.30
2022-11-02T00:16:59.716Z,52.40
2022-11-02T00:22:03.049Z,52.50
2022-11-02T00:27:07.750Z,52.50
2022-11-02T00:32:10.816Z,52.50
2022-11-02T00:37:13.860Z,52.50
2022-11-02T00:42:18.136Z,52.50
2022-11-02T00:47:21.812Z,52.50
2022-11-02T00:52:25.125Z,52.60
2022-11-02T00:57:30.045Z,52.60
2022-11-02T01:02:34.069Z,52.70
2022-11-02T01:07:38.537Z,52.70
2022-11-02T01:12:42.995Z,52.70
2022-11-02T01:17:46.941Z,52.80
2022-11-02T01:22:49.907Z,52.70
2022-11-02T01:27:54.267Z,52.70
2022-11-02T01:32:57.167Z,52.80
2022-11-02T01:38:00.999Z,52.80
2022-11-02T01:43:24.746Z,52.80
2022-11-02T01:48:31.957Z,52.90
2022-11-02T01:53:37.705Z,52.90
2022-11-02T01:58:42.570Z,52.80
2022-11-02T02:03:46.885Z,53.00
2022-11-02T02:08:52.269Z,52.90
2022-11-02T02:13:59.160Z,53.10
2022-11-02T02:19:09.551Z,53.20
2022-11-02T02:24:25.109Z,53.20
2022-11-02T02:29:35.350Z,53.40
2022-11-02T02:34:47.352Z,53.30
2022-11-02T02:39:56.226Z,53.50
2022-11-02T02:45:09.573Z,53.50
2022-11-02T02:50:17.218Z,53.70
2022-11-02T02:55:25.006Z,53.70
2022-11-02T03:00:31.466Z,53.80
2022-11-02T03:05:36.722Z,53.80
2022-11-02T03:10:47.626Z,53.90
2022-11-02T03:16:00.114Z,53.90
2022-11-02T03:21:07.983Z,54.00
2022-11-02T03:26:19.282Z,53.80
2022-11-02T03:31:34.558Z,53.90
2022-11-02T03:36:44.531Z,54.00
2022-11-02T03:41:49.079Z,53.90
2022-11-02T03:46:59.972Z,53.80
2022-11-02T03:52:09.816Z,54.00
2022-11-02T03:57:19.722Z,53.90
2022-11-02T04:02:25.027Z,54.00
2022-11-02T04:07:58.460Z,54.00
2022-11-02T04:13:20.894Z,54.10
2022-11-02T04:18:39.302Z,54.00
2022-11-02T04:23:59.734Z,54.00
2022-11-02T04:29:02.910Z,54.00
2022-11-02T04:34:07.797Z,53.90
2022-11-02T04:39:11.391Z,54.00
2022-11-02T04:44:15.850Z,53.80
2022-11-02T04:49:23.546Z,53.80
2022-11-02T04:54:26.674Z,53.80
2022-11-02T04:59:34.182Z,53.80
2022-11-02T05:04:38.899Z,53.80
2022-11-02T05:09:43.573Z,53.70
2022-11-02T05:14:48.898Z,53.70
2022-11-02T05:19:53.529Z,53.80
2022-11-02T05:24:57.245Z,53.80
2022-11-02T05:30:00.347Z,53.80
2022-11-02T05:35:06.382Z,53.90
2022-11-02T05:40:11.172Z,54.00
2022-11-02T05:45:14.622Z,54.00
2022-11-02T05:50:19.007Z,54.00
2022-11-02T05:55:22.256Z,54.10
2022-11-02T06:00:25.298Z,54.20
2022-11-02T06:05:29.659Z,54.30
2022-11-02T06:10:32.938Z,54.50
2022-11-02T06:15:35.872Z,54.50
2022-11-02T06:20:40.271Z,54.50
2022-11-02T06:25:43.233Z,54.60
2022-11-02T06:30:46.225Z,54.50
2022-11-02T06:35:53.083Z,54.60
2022-11-02T06:40:57.272Z,54.80
2022-11-02T06:46:00.359Z,54.80
2022-11-02T06:51:06.203Z,54.70
2022-11-02T06:56:10.342Z,54.60
2022-11-02T07:01:15.333Z,54.50
2022-11-02T07:06:19.876Z,54.50
2022-11-02T07:11:22.917Z,54.60
2022-11-02T07:16:26.320Z,54.60
2022-11-02T07:21:30.740Z,54.60
2022-11-02T07:26:33.839Z,54.70
2022-11-02T07:31:36.919Z,54.60
2022-11-02T07:36:41.634Z,54.70
2022-11-02T07:41:49.287Z,54.80
2022-11-02T07:46:54.652Z,54.80
2022-11-02T07:51:59.124Z,54.80
2022-11-02T07:57:02.094Z,54.90
2022-11-02T08:02:05.064Z,55.00
2022-11-02T08:07:09.481Z,55.00
2022-11-02T08:12:12.862Z,55.00
2022-11-02T08:17:15.807Z,55.80
2022-11-02T08:22:20.202Z,55.10
2022-11-02T08:27:23.161Z,55.10
2022-11-02T08:32:26.122Z,55.10
2022-11-02T08:37:30.520Z,54.90
2022-11-02T08:42:33.482Z,54.90
2022-11-02T08:47:41.658Z,54.90
2022-11-02T08:52:45.965Z,54.80
2022-11-02T08:57:49.685Z,54.70
2022-11-02T09:03:04.971Z,54.70
2022-11-02T09:08:12.553Z,54.60
2022-11-02T09:13:18.290Z,54.60
2022-11-02T09:18:21.530Z,54.50
2022-11-02T09:23:25.887Z,54.50
2022-11-02T09:28:28.901Z,54.50
2022-11-02T09:33:32.410Z,54.40
2022-11-02T09:38:37.062Z,54.50
2022-11-02T09:43:47.338Z,54.60
2022-11-02T09:48:53.450Z,54.00
2022-11-02T09:54:08.046Z,54.10
2022-11-02T09:59:15.631Z,53.80
2022-11-02T10:04:38.059Z,53.80
2022-11-02T10:09:50.991Z,53.60
2022-11-02T10:15:03.287Z,53.50
2022-11-02T10:20:16.884Z,53.50
2022-11-02T10:25:21.309Z,53.40
2022-11-02T10:30:24.287Z,52.80
2022-11-02T10:35:45.790Z,52.90
2022-11-02T10:41:14.626Z,52.70
2022-11-02T10:46:32.993Z,52.70
2022-11-02T10:51:36.309Z,52.40
2022-11-02T10:56:42.083Z,52.60
2022-11-02T11:02:04.616Z,52.30
2022-11-02T11:07:13.967Z,52.30
2022-11-02T11:12:22.404Z,52.20
2022-11-02T11:23:09.365Z,52.00
2022-11-02T11:28:25.608Z,51.50
2022-11-02T11:33:28.802Z,51.40
2022-11-02T11:38:31.899Z,51.50
2022-11-02T11:43:38.511Z,51.80
2022-11-02T11:48:43.918Z,51.90
2022-11-02T11:54:18.065Z,51.60
2022-11-02T11:59:25.209Z,51.40
2022-11-02T12:04:30.331Z,50.90
2022-11-02T12:09:39.963Z,50.90
2022-11-02T12:14:54.981Z,50.40
2022-11-02T12:20:12.359Z,50.40
2022-11-02T12:25:26.343Z,50.40
2022-11-02T12:30:36.985Z,49.80
2022-11-02T12:36:00.010Z,50.10
2022-11-02T12:41:05.934Z,49.90
2022-11-02T12:46:26.221Z,49.60
2022-11-02T12:51:33.089Z,49.50
2022-11-02T12:56:45.053Z,48.60
2022-11-02T13:01:53.159Z,48.80
2022-11-02T13:07:01.379Z,49.00
2022-11-02T13:12:09.397Z,49.00
2022-11-02T13:17:19.620Z,48.30
2022-11-02T13:22:29.551Z,48.10
2022-11-02T13:27:37.259Z,47.80
2022-11-02T13:32:46.579Z,48.20
2022-11-02T13:37:54.102Z,47.80
2022-11-02T13:43:26.863Z,48.40
2022-11-02T13:48:56.658Z,48.70
2022-11-02T13:54:03.119Z,49.10
2022-11-02T13:59:09.084Z,48.70
2022-11-02T14:04:15.841Z,48.50
2022-11-02T14:09:30.062Z,48.20
2022-11-02T14:14:33.221Z,47.50
2022-11-02T14:19:53.425Z,47.10
2022-11-02T14:25:22.058Z,47.60
2022-11-02T14:30:44.019Z,47.20
2022-11-02T14:35:57.680Z,46.70
2022-11-02T14:41:14.549Z,46.50
2022-11-02T14:46:33.907Z,46.70
2022-11-02T14:51:39.504Z,46.50
2022-11-02T14:56:51.343Z,46.50
2022-11-02T15:01:58.093Z,46.70
2022-11-02T15:07:05.738Z,46.80
2022-11-02T15:12:27.827Z,46.90
2022-11-02T15:17:54.422Z,46.90
2022-11-02T15:23:29.820Z,47.00
2022-11-02T15:28:35.877Z,46.90
2022-11-02T15:33:43.105Z,47.20
2022-11-02T15:38:51.602Z,47.40
2022-11-02T15:44:11.820Z,47.30
2022-11-02T15:49:29.767Z,47.30
2022-11-02T15:54:51.992Z,47.10
2022-11-02T16:00:13.102Z,47.00
2022-11-02T16:05:24.634Z,47.30
2022-11-02T16:10:31.043Z,47.50
2022-11-02T16:15:34.069Z,47.60
2022-11-02T16:20:39.903Z,47.60
2022-11-02T16:25:47.476Z,47.60
2022-11-02T16:31:14.379Z,47.60
2022-11-02T16:36:23.228Z,47.50
2022-11-02T16:41:29.050Z,47.60
2022-11-02T16:46:40.780Z,47.60
2022-11-02T16:51:50.704Z,47.80
2022-11-02T16:56:56.794Z,47.60
2022-11-02T17:02:01.785Z,47.80
2022-11-02T17:07:14.843Z,47.80
2022-11-02T17:12:20.558Z,48.00
2022-11-02T17:17:35.610Z,48.00
2022-11-02T17:22:40.261Z,48.10
2022-11-02T17:27:44.606Z,48.00
2022-11-02T17:32:47.655Z,48.20
2022-11-02T17:37:50.897Z,48.10
2022-11-02T17:43:02.256Z,48.90
2022-11-02T17:48:06.780Z,48.20
2022-11-02T17:53:13.675Z,49.10
2022-11-02T17:58:18.094Z,48.30
2022-11-02T18:03:25.436Z,48.40
2022-11-02T18:08:30.141Z,48.50
2022-11-02T18:13:34.450Z,48.50
2022-11-02T18:18:37.402Z,48.50
2022-11-02T18:23:41.573Z,48.50
2022-11-02T18:28:45.844Z,48.60
2022-11-02T18:33:52.307Z,48.70
2022-11-02T18:38:55.304Z,48.70
2022-11-02T18:44:04.849Z,48.80
2022-11-02T18:49:09.768Z,48.90
2022-11-02T18:54:13.101Z,49.00
2022-11-02T18:59:17.883Z,49.00
2022-11-02T19:04:21.009Z,48.90
2022-11-02T19:09:28.927Z,48.90
2022-11-02T19:14:35.861Z,49.00
2022-11-02T19:19:40.813Z,49.20
2022-11-02T19:24:43.794Z,49.20
2022-11-02T19:29:48.426Z,49.10
2022-11-02T19:34:51.350Z,49.10
2022-11-02T19:39:55.004Z,49.20
2022-11-02T19:44:59.587Z,49.30
2022-11-02T19:50:02.519Z,49.30
2022-11-02T19:55:06.058Z,49.30
2022-11-02T20:00:12.252Z,49.30
2022-11-02T20:05:15.359Z,49.30
2022-11-02T20:10:18.452Z,49.10
2022-11-02T20:15:22.886Z,49.10
2022-11-02T20:20:26.629Z,49.20
2022-11-02T20:25:30.127Z,49.20
2022-11-02T20:30:34.448Z,49.20
2022-11-02T20:35:38.905Z,49.40
2022-11-02T20:40:42.213Z,49.50
2022-11-02T20:45:46.573Z,49.50
2022-11-02T20:50:49.514Z,50.30
2022-11-02T20:55:52.745Z,49.60
2022-11-02T21:00:57.205Z,49.80
2022-11-02T21:06:03.861Z,49.80
2022-11-02T21:11:28.623Z,49.80
2022-11-02T21:16:32.889Z,49.70
2022-11-02T21:21:35.855Z,49.80
2022-11-02T21:26:38.803Z,49.70
2022-11-02T21:31:43.101Z,49.80
2022-11-02T21:36:46.191Z,49.90
2022-11-02T21:41:49.176Z,49.90
2022-11-02T21:46:53.492Z,49.90
2022-11-02T21:51:56.432Z,50.00
2022-11-02T21:56:59.517Z,49.80
2022-11-02T22:02:03.908Z,49.70
2022-11-02T22:07:06.930Z,49.70
2022-11-02T22:12:27.174Z,49.70
2022-11-02T22:22:54.460Z,49.80
2022-11-02T22:27:57.408Z,49.90
2022-11-02T22:33:01.673Z,50.00
2022-11-02T22:38:22.099Z,49.80
2022-11-02T22:43:25.057Z,49.40
2022-11-02T22:48:29.655Z,49.50
2022-11-02T22:53:33.183Z,49.60
2022-11-02T22:58:37.779Z,49.80
2022-11-02T23:03:42.064Z,50.00
2022-11-02T23:08:46.623Z,50.30
2022-11-02T23:13:52.080Z,50.30
2022-11-02T23:19:20.385Z,50.40
2022-11-02T23:24:47.315Z,50.50
2022-11-02T23:30:07.632Z,50.40
2022-11-02T23:35:29.541Z,50.60
2022-11-02T23:40:33.165Z,50.30
2022-11-02T23:45:36.383Z,50.00
2022-11-02T23:50:58.242Z,49.80
2022-11-02T23:56:19.096Z,49.80
